createdAt,value
2018-12-20T00:02:16.337Z,77.70
2018-12-20T00:06:10.726Z,77.60
2018-12-20T00:09:25.058Z,77.70
2018-12-20T00:12:02.153Z,77.70
2018-12-20T00:16:58.955Z,77.60
2018-12-20T00:19:36.201Z,77.70
2018-12-20T00:22:37.009Z,77.80
2018-12-20T00:25:08.150Z,77.60
2018-12-20T00:27:40.581Z,77.70
2018-12-20T00:30:11.494Z,77.70
2018-12-20T00:32:43.433Z,77.80
2018-12-20T00:35:14.358Z,78.00
2018-12-20T00:37:47.412Z,78.10
2018-12-20T00:40:18.664Z,77.80
2018-12-20T00:42:49.746Z,78.10
2018-12-20T00:45:21.429Z,78.10
2018-12-20T00:47:52.657Z,78.20
2018-12-20T00:50:23.724Z,78.40
2018-12-20T00:52:54.843Z,78.30
2018-12-20T00:55:26.296Z,78.30
2018-12-20T00:57:57.756Z,78.70
2018-12-20T01:00:28.878Z,78.60
2018-12-20T01:02:59.976Z,78.70
2018-12-20T01:05:31.302Z,78.80
2018-12-20T01:08:02.351Z,78.90
2018-12-20T01:10:33.128Z,78.90
2018-12-20T01:13:04.169Z,79.10
2018-12-20T01:15:35.334Z,79.30
2018-12-20T01:18:06.493Z,80.20
2018-12-20T01:20:37.475Z,79.40
2018-12-20T01:23:08.359Z,79.30
2018-12-20T01:25:39.410Z,79.30
2018-12-20T01:28:10.480Z,79.80
2018-12-20T01:30:41.382Z,79.90
2018-12-20T01:33:13.096Z,80.30
2018-12-20T01:35:44.813Z,80.40
2018-12-20T01:38:15.714Z,80.50
2018-12-20T01:40:47.087Z,80.20
2018-12-20T01:43:20.903Z,80.30
2018-12-20T01:45:52.931Z,80.40
2018-12-20T01:48:24.062Z,80.70
2018-12-20T01:50:56.244Z,80.70
2018-12-20T01:53:27.362Z,80.60
2018-12-20T01:55:58.441Z,80.80
2018-12-20T01:58:29.904Z,81.10
2018-12-20T02:01:00.776Z,81.10
2018-12-20T02:03:31.946Z,81.10
2018-12-20T02:06:03.563Z,81.30
2018-12-20T02:08:34.790Z,81.40
2018-12-20T02:11:05.907Z,81.50
2018-12-20T02:13:37.341Z,81.40
2018-12-20T02:16:08.656Z,81.20
2018-12-20T02:18:40.014Z,81.30
2018-12-20T02:21:11.131Z,81.50
2018-12-20T02:23:42.190Z,81.40
2018-12-20T02:26:13.084Z,81.60
2018-12-20T02:28:44.073Z,81.50
2018-12-20T02:31:14.997Z,81.40
2018-12-20T02:33:45.805Z,81.20
2018-12-20T02:36:16.785Z,81.10
2018-12-20T02:38:47.795Z,81.20
2018-12-20T02:41:19.508Z,81.20
2018-12-20T02:43:50.869Z,81.30
2018-12-20T02:46:22.151Z,90.20
2018-12-20T02:48:53.360Z,81.20
2018-12-20T02:51:24.268Z,81.20
2018-12-20T02:53:55.046Z,81.20
2018-12-20T02:56:26.094Z,81.30
2018-12-20T02:58:57.390Z,90.30
2018-12-20T03:01:28.329Z,80.90
2018-12-20T03:03:59.319Z,81.00
2018-12-20T03:06:30.557Z,81.10
2018-12-20T03:09:01.343Z,81.00
2018-12-20T03:11:33.681Z,81.00
2018-12-20T03:14:04.872Z,80.50
2018-12-20T03:16:35.802Z,81.40
2018-12-20T03:19:07.227Z,80.90
2018-12-20T03:21:37.794Z,90.30
2018-12-20T03:24:08.802Z,81.10
2018-12-20T03:26:39.776Z,81.10
2018-12-20T03:29:11.011Z,81.10
2018-12-20T03:31:41.843Z,81.10
2018-12-20T03:34:12.817Z,81.10
2018-12-20T03:36:43.871Z,81.10
2018-12-20T03:39:15.400Z,81.00
2018-12-20T03:41:46.408Z,81.10
2018-12-20T03:44:17.304Z,80.90
2018-12-20T03:46:48.298Z,80.90
2018-12-20T03:49:19.714Z,81.10
2018-12-20T03:51:52.065Z,81.10
2018-12-20T03:54:24.099Z,81.10
2018-12-20T03:56:54.797Z,81.10
2018-12-20T03:59:26.874Z,81.10
2018-12-20T04:01:57.741Z,81.20
2018-12-20T04:04:28.951Z,81.20
2018-12-20T04:06:59.713Z,81.20
2018-12-20T04:09:30.501Z,81.10
2018-12-20T04:12:02.734Z,81.10
2018-12-20T04:14:33.934Z,81.10
2018-12-20T04:17:04.752Z,80.90
2018-12-20T04:19:35.548Z,80.90
2018-12-20T04:22:06.475Z,80.90
2018-12-20T04:24:38.531Z,81.70
2018-12-20T04:27:09.568Z,81.00
2018-12-20T04:29:40.314Z,81.10
2018-12-20T04:32:10.913Z,81.10
2018-12-20T04:34:41.666Z,80.90
2018-12-20T04:37:12.569Z,80.90
2018-12-20T04:39:43.481Z,81.10
2018-12-20T04:42:13.927Z,81.10
2018-12-20T04:44:44.654Z,81.10
2018-12-20T04:47:15.213Z,80.80
2018-12-20T04:49:45.733Z,79.90
2018-12-20T04:52:16.301Z,81.10
2018-12-20T04:54:47.000Z,91.80
2018-12-20T04:57:17.613Z,81.40
2018-12-20T04:59:49.047Z,81.40
2018-12-20T05:02:19.580Z,81.30
2018-12-20T05:04:50.264Z,81.30
2018-12-20T05:07:22.329Z,91.10
2018-12-20T05:09:53.569Z,81.00
2018-12-20T05:14:54.851Z,91.80
2018-12-20T05:17:25.912Z,91.70
2018-12-20T05:19:56.995Z,81.20
2018-12-20T05:22:28.251Z,81.20
2018-12-20T05:24:59.182Z,81.30
2018-12-20T05:27:30.419Z,81.40
2018-12-20T05:30:02.307Z,81.30
2018-12-20T05:32:33.223Z,81.30
2018-12-20T05:35:04.979Z,81.40
2018-12-20T05:37:36.270Z,81.30
2018-12-20T05:40:07.910Z,81.30
2018-12-20T05:42:39.793Z,91.00
2018-12-20T05:45:10.587Z,92.20
2018-12-20T05:47:42.301Z,91.60
2018-12-20T05:50:13.103Z,92.60
2018-12-20T05:52:43.819Z,92.30
2018-12-20T05:55:14.990Z,81.50
2018-12-20T05:57:45.899Z,81.50
2018-12-20T06:00:17.304Z,90.80
2018-12-20T06:02:48.332Z,91.40
2018-12-20T06:05:19.679Z,92.50
2018-12-20T06:10:20.685Z,91.10
2018-12-20T06:12:51.706Z,91.00
2018-12-20T06:15:23.093Z,90.90
2018-12-20T06:17:55.207Z,81.70
2018-12-20T06:20:26.633Z,81.70
2018-12-20T06:22:57.559Z,81.80
2018-12-20T06:30:29.390Z,91.30
2018-12-20T06:33:00.222Z,91.20
2018-12-20T06:35:31.185Z,81.90
2018-12-20T06:38:02.183Z,90.30
2018-12-20T06:40:33.103Z,81.80
2018-12-20T06:45:34.130Z,90.60
2018-12-20T06:48:05.024Z,81.30
2018-12-20T06:50:35.969Z,89.60
2018-12-20T06:53:06.903Z,81.70
2018-12-20T06:55:37.967Z,81.60
2018-12-20T06:58:09.804Z,92.10
2018-12-20T07:00:41.693Z,91.60
2018-12-20T07:03:12.687Z,91.10
2018-12-20T07:05:43.484Z,91.80
2018-12-20T07:08:14.390Z,92.90
2018-12-20T07:10:45.206Z,92.80
2018-12-20T07:13:15.875Z,92.90
2018-12-20T07:18:16.877Z,93.20
2018-12-20T07:23:19.444Z,93.60
2018-12-20T07:25:50.038Z,94.10
2018-12-20T07:28:20.936Z,92.70
2018-12-20T07:30:52.060Z,91.40
2018-12-20T07:33:22.967Z,92.20
2018-12-20T07:40:53.898Z,92.90
2018-12-20T07:43:24.687Z,90.90
2018-12-20T07:45:55.821Z,83.10
2018-12-20T07:48:32.024Z,83.30
2018-12-20T07:51:00.584Z,83.30
2018-12-20T07:53:31.664Z,83.30
2018-12-20T07:56:02.705Z,83.10
2018-12-20T07:58:33.535Z,83.20
2018-12-20T08:01:06.479Z,83.20
2018-12-20T08:03:37.477Z,83.10
2018-12-20T08:06:08.466Z,83.20
2018-12-20T08:08:39.203Z,83.20
2018-12-20T08:11:10.131Z,83.20
2018-12-20T08:13:41.079Z,83.20
2018-12-20T08:16:12.458Z,83.30
2018-12-20T08:18:43.160Z,83.20
2018-12-20T08:21:14.104Z,83.30
2018-12-20T08:23:45.027Z,83.20
2018-12-20T08:26:15.846Z,83.00
2018-12-20T08:28:46.661Z,82.80
2018-12-20T08:31:17.287Z,83.00
2018-12-20T08:33:48.352Z,83.00
2018-12-20T08:36:19.561Z,83.00
2018-12-20T08:38:50.478Z,83.00
2018-12-20T08:41:22.035Z,82.80
2018-12-20T08:43:52.717Z,82.80
2018-12-20T08:46:24.707Z,83.00
2018-12-20T08:48:55.591Z,82.80
2018-12-20T08:51:26.266Z,82.80
2018-12-20T08:53:57.076Z,82.80
2018-12-20T08:56:28.262Z,82.40
2018-12-20T08:58:58.988Z,82.30
2018-12-20T09:01:30.305Z,82.10
2018-12-20T09:04:01.302Z,82.20
2018-12-20T09:06:32.751Z,82.20
2018-12-20T09:09:05.637Z,82.10
2018-12-20T09:11:36.520Z,82.20
2018-12-20T09:14:07.454Z,82.10
2018-12-20T09:16:38.708Z,81.90
2018-12-20T09:19:10.769Z,81.70
2018-12-20T09:21:41.738Z,82.00
2018-12-20T09:24:12.820Z,81.50
2018-12-20T09:26:43.557Z,81.50
2018-12-20T09:29:14.506Z,81.70
2018-12-20T09:31:46.266Z,81.60
2018-12-20T09:34:17.217Z,81.40
2018-12-20T09:36:48.318Z,81.50
2018-12-20T09:39:20.108Z,81.40
2018-12-20T09:41:50.949Z,81.40
2018-12-20T09:44:21.738Z,81.40
2018-12-20T09:46:58.159Z,81.30
2018-12-20T09:49:29.256Z,81.20
2018-12-20T09:52:02.215Z,81.10
2018-12-20T09:54:33.382Z,80.90
2018-12-20T09:57:04.819Z,81.10
2018-12-20T09:59:35.877Z,80.90
2018-12-20T10:02:07.410Z,81.00
2018-12-20T10:04:38.527Z,81.10
2018-12-20T10:07:10.989Z,80.80
2018-12-20T10:09:41.671Z,86.90
2018-12-20T10:12:12.595Z,80.90
2018-12-20T10:14:43.503Z,90.20
2018-12-20T10:17:19.880Z,81.00
2018-12-20T10:19:48.680Z,81.10
2018-12-20T10:22:19.522Z,80.90
2018-12-20T10:24:51.461Z,80.90
2018-12-20T10:27:31.201Z,80.90
2018-12-20T10:29:56.264Z,81.10
2018-12-20T10:32:27.280Z,81.10
2018-12-20T10:34:58.209Z,81.10
2018-12-20T10:37:29.399Z,81.90
2018-12-20T10:40:00.473Z,90.80
2018-12-20T10:42:32.090Z,91.10
2018-12-20T10:45:02.984Z,91.30
2018-12-20T10:47:34.974Z,80.80
2018-12-20T10:50:06.717Z,92.20
2018-12-20T10:52:38.463Z,92.30
2018-12-20T10:55:09.605Z,92.30
2018-12-20T11:08:03.103Z,80.10
2018-12-20T11:10:34.242Z,81.10
2018-12-20T11:13:35.703Z,81.30
2018-12-20T11:18:37.215Z,93.60
2018-12-20T11:21:08.148Z,81.30
2018-12-20T11:23:39.109Z,92.90
2018-12-20T11:33:42.804Z,89.90
2018-12-20T11:36:16.858Z,95.60
2018-12-20T11:41:17.942Z,96.40
2018-12-20T11:53:51.576Z,98.50
2018-12-20T11:56:22.682Z,99.40
2018-12-20T12:06:26.015Z,97.10
2018-12-20T12:08:57.024Z,98.80
2018-12-20T12:11:27.928Z,98.30
2018-12-20T12:16:30.103Z,91.20
2018-12-20T12:19:00.839Z,94.40
2018-12-20T12:21:32.137Z,98.50
2018-12-20T12:24:03.078Z,96.20
2018-12-20T12:26:34.103Z,97.20
2018-12-20T12:29:04.802Z,94.60
2018-12-20T12:31:36.236Z,96.30
2018-12-20T12:34:07.284Z,95.20
2018-12-20T12:39:10.018Z,96.50
2018-12-20T12:41:41.209Z,98.40
2018-12-20T12:44:12.265Z,97.40
2018-12-20T12:49:13.479Z,99.90
2018-12-20T12:51:52.972Z,94.40
2018-12-20T12:54:17.417Z,96.60
2018-12-20T12:56:48.366Z,97.80
2018-12-20T13:04:22.191Z,99.90
2018-12-20T13:06:53.419Z,99.30
2018-12-20T13:09:24.521Z,89.80
2018-12-20T13:11:55.430Z,89.90
2018-12-20T13:16:56.648Z,97.70
2018-12-20T13:19:27.636Z,90.10
2018-12-20T13:21:58.537Z,98.30
2018-12-20T13:27:00.041Z,99.90
2018-12-20T13:29:31.851Z,98.60
2018-12-20T13:32:02.414Z,90.20
2018-12-20T13:34:34.073Z,90.30
2018-12-20T13:37:05.159Z,90.20
2018-12-20T13:39:35.895Z,90.30
2018-12-20T13:42:06.932Z,90.30
2018-12-20T13:52:12.909Z,90.00
2018-12-20T13:54:43.862Z,90.30
2018-12-20T13:57:14.949Z,90.70
2018-12-20T13:59:45.730Z,90.30
2018-12-20T14:02:16.618Z,90.30
2018-12-20T14:04:48.345Z,90.40
2018-12-20T14:07:19.992Z,90.40
2018-12-20T14:09:51.658Z,90.40
2018-12-20T14:12:22.399Z,90.40
2018-12-20T14:14:53.324Z,90.30
2018-12-20T14:17:24.153Z,90.40
2018-12-20T14:19:55.265Z,90.40
2018-12-20T14:22:26.355Z,90.40
2018-12-20T14:24:57.093Z,90.40
2018-12-20T14:27:27.886Z,90.40
2018-12-20T14:29:58.895Z,90.40
2018-12-20T14:32:29.906Z,90.40
2018-12-20T14:35:01.791Z,90.40
2018-12-20T14:37:33.624Z,90.40
2018-12-20T14:40:04.898Z,90.40
2018-12-20T14:42:37.865Z,90.40
2018-12-20T14:45:08.742Z,90.50
2018-12-20T14:47:39.647Z,90.50
2018-12-20T14:50:10.711Z,90.50
2018-12-20T14:52:43.438Z,90.50
2018-12-20T14:55:14.539Z,90.50
2018-12-20T14:57:45.200Z,90.50
2018-12-20T15:00:16.222Z,90.50
2018-12-20T15:02:48.499Z,90.50
2018-12-20T15:05:19.693Z,90.50
2018-12-20T15:07:51.628Z,90.50
2018-12-20T15:10:23.268Z,90.50
2018-12-20T15:12:54.356Z,90.50
2018-12-20T15:15:25.345Z,90.50
2018-12-20T15:18:01.764Z,90.50
2018-12-20T15:20:40.228Z,90.50
2018-12-20T15:23:05.261Z,90.50
2018-12-20T15:25:36.081Z,90.50
2018-12-20T15:28:07.244Z,90.50
2018-12-20T15:30:38.038Z,90.50
2018-12-20T15:33:08.510Z,90.50
2018-12-20T15:35:39.419Z,90.50
2018-12-20T15:38:10.703Z,90.50
2018-12-20T15:40:42.087Z,90.50
2018-12-20T15:43:13.102Z,90.50
2018-12-20T15:45:44.068Z,90.50
2018-12-20T15:48:17.986Z,90.50
2018-12-20T15:50:48.677Z,90.50
2018-12-20T15:53:28.283Z,90.50
2018-12-20T15:56:07.848Z,90.50
2018-12-20T15:58:39.900Z,90.50
2018-12-20T16:01:11.790Z,90.50
2018-12-20T16:03:43.115Z,90.50
2018-12-20T16:06:14.105Z,90.50
2018-12-20T16:08:44.787Z,90.50
2018-12-20T16:11:15.796Z,90.50
2018-12-20T16:13:46.593Z,90.50
2018-12-20T16:16:17.222Z,90.50
2018-12-20T16:18:47.833Z,90.50
2018-12-20T16:21:18.444Z,90.50
2018-12-20T16:23:49.285Z,90.50
2018-12-20T16:26:20.414Z,90.50
2018-12-20T16:28:51.046Z,90.50
2018-12-20T16:31:22.453Z,90.50
2018-12-20T16:33:53.354Z,90.50
2018-12-20T16:36:25.915Z,90.50
2018-12-20T16:38:57.058Z,90.50
2018-12-20T16:41:30.626Z,90.50
2018-12-20T16:44:08.570Z,90.50
2018-12-20T16:46:39.883Z,90.50
2018-12-20T16:49:13.729Z,90.50
2018-12-20T16:51:44.687Z,90.50
2018-12-20T16:54:15.829Z,90.50
2018-12-20T16:56:47.269Z,90.50
2018-12-20T16:59:18.158Z,90.50
2018-12-20T17:01:48.851Z,90.50
2018-12-20T17:04:20.252Z,90.50
2018-12-20T17:06:51.787Z,90.50
2018-12-20T17:09:22.451Z,90.50
2018-12-20T17:11:53.172Z,90.50
2018-12-20T17:14:23.855Z,90.50
2018-12-20T17:16:54.559Z,90.60
2018-12-20T17:19:25.588Z,90.60
2018-12-20T17:21:58.237Z,90.60
2018-12-20T17:24:28.738Z,90.60
2018-12-20T17:26:59.390Z,90.60
2018-12-20T17:29:30.123Z,90.60
2018-12-20T17:32:00.761Z,90.50
2018-12-20T17:34:31.907Z,90.50
2018-12-20T17:37:02.429Z,90.50
2018-12-20T17:39:34.152Z,90.50
2018-12-20T17:42:04.838Z,90.50
2018-12-20T17:44:35.408Z,90.50
2018-12-20T17:47:06.038Z,90.60
2018-12-20T17:49:36.629Z,90.50
2018-12-20T17:52:08.182Z,90.60
2018-12-20T17:54:38.769Z,90.60
2018-12-20T17:57:09.588Z,90.60
2018-12-20T17:59:40.561Z,90.50
2018-12-20T18:02:17.494Z,90.50
2018-12-20T18:04:48.450Z,90.50
2018-12-20T18:07:19.587Z,90.60
2018-12-20T18:09:50.427Z,90.60
2018-12-20T18:12:21.101Z,90.60
2018-12-20T18:14:51.539Z,90.60
2018-12-20T18:17:22.389Z,90.60
2018-12-20T18:19:53.023Z,90.60
2018-12-20T18:22:24.416Z,90.60
2018-12-20T18:24:55.001Z,90.60
2018-12-20T18:27:25.792Z,90.60
2018-12-20T18:29:56.435Z,90.60
2018-12-20T18:32:27.312Z,90.50
2018-12-20T18:34:59.245Z,90.50
2018-12-20T18:37:30.199Z,90.60
2018-12-20T18:40:00.926Z,90.60
2018-12-20T18:42:31.821Z,90.60
2018-12-20T18:45:02.557Z,90.60
2018-12-20T18:47:33.435Z,90.60
2018-12-20T18:50:04.170Z,90.60
2018-12-20T18:52:36.938Z,90.60
2018-12-20T18:55:07.963Z,90.60
2018-12-20T18:57:38.540Z,90.60
2018-12-20T19:00:16.037Z,90.60
2018-12-20T19:02:48.478Z,90.60
2018-12-20T19:05:19.412Z,90.60
2018-12-20T19:07:50.657Z,90.60
2018-12-20T19:10:21.418Z,90.60
2018-12-20T19:12:52.195Z,90.60
2018-12-20T19:15:23.168Z,90.60
2018-12-20T19:17:54.354Z,90.60
2018-12-20T19:20:25.574Z,90.60
2018-12-20T19:22:56.528Z,90.60
2018-12-20T19:25:27.467Z,90.60
2018-12-20T19:28:03.637Z,90.60
2018-12-20T19:30:35.400Z,90.60
2018-12-20T19:33:06.580Z,90.60
2018-12-20T19:35:37.766Z,90.60
2018-12-20T19:38:08.566Z,90.60
2018-12-20T19:40:39.644Z,90.30
2018-12-20T19:43:10.469Z,90.60
2018-12-20T19:45:45.997Z,90.60
2018-12-20T19:48:14.783Z,90.60
2018-12-20T19:50:45.443Z,90.60
2018-12-20T19:53:17.371Z,90.60
2018-12-20T19:55:49.252Z,90.60
2018-12-20T19:58:20.345Z,90.60
2018-12-20T20:00:51.443Z,90.60
2018-12-20T20:03:22.192Z,90.60
2018-12-20T20:05:53.728Z,90.60
2018-12-20T20:08:25.155Z,90.60
2018-12-20T20:10:56.215Z,90.60
2018-12-20T20:13:30.899Z,90.60
2018-12-20T20:16:00.354Z,90.60
2018-12-20T20:18:31.383Z,90.80
2018-12-20T20:21:02.456Z,90.60
2018-12-20T20:23:33.314Z,90.60
2018-12-20T20:26:05.132Z,90.60
2018-12-20T20:28:36.366Z,90.60
2018-12-20T20:31:07.041Z,90.60
2018-12-20T20:33:38.647Z,90.60
2018-12-20T20:36:11.394Z,90.60
2018-12-20T20:38:42.381Z,90.60
2018-12-20T20:41:13.267Z,90.60
2018-12-20T20:43:44.173Z,90.60
2018-12-20T20:46:14.822Z,90.60
2018-12-20T20:48:45.896Z,90.60
2018-12-20T20:51:17.025Z,90.60
2018-12-20T20:53:48.369Z,90.60
2018-12-20T20:56:19.666Z,90.60
2018-12-20T20:58:50.583Z,90.60
2018-12-20T21:01:21.845Z,90.60
2018-12-20T21:03:53.035Z,90.60
2018-12-20T21:06:24.068Z,90.60
2018-12-20T21:08:55.596Z,90.60
2018-12-20T21:11:26.306Z,90.60
2018-12-20T21:13:57.743Z,90.60
2018-12-20T21:16:28.656Z,90.60
2018-12-20T21:18:59.776Z,90.60
2018-12-20T21:21:30.941Z,90.60
2018-12-20T21:24:02.086Z,90.60
2018-12-20T21:26:33.037Z,90.60
2018-12-20T21:29:03.770Z,90.60
2018-12-20T21:31:34.612Z,90.60
2018-12-20T21:34:05.478Z,90.60
2018-12-20T21:36:36.515Z,90.60
2018-12-20T21:39:07.579Z,91.00
2018-12-20T21:41:38.388Z,90.60
2018-12-20T21:44:09.281Z,90.60
2018-12-20T21:46:40.342Z,90.60
2018-12-20T21:49:11.269Z,90.60
2018-12-20T21:51:42.145Z,90.60
2018-12-20T21:54:13.183Z,90.60
2018-12-20T21:56:44.044Z,90.60
2018-12-20T21:59:14.865Z,90.60
2018-12-20T22:01:45.722Z,90.60
2018-12-20T22:04:16.367Z,90.60
2018-12-20T22:06:47.233Z,91.00
2018-12-20T22:09:18.649Z,95.20
2018-12-20T22:11:49.683Z,90.60
2018-12-20T22:14:20.931Z,90.60
2018-12-20T22:16:51.937Z,90.60
2018-12-20T22:19:24.051Z,90.60
2018-12-20T22:21:54.864Z,90.60
2018-12-20T22:24:25.719Z,90.60
2018-12-20T22:26:56.758Z,90.70
2018-12-20T22:29:27.725Z,90.70
2018-12-20T22:31:58.729Z,90.70
2018-12-20T22:34:29.745Z,90.70
2018-12-20T22:37:00.699Z,90.70
2018-12-20T22:39:31.433Z,90.70
2018-12-20T22:42:02.238Z,90.70
2018-12-20T22:44:33.144Z,90.70
2018-12-20T22:47:04.065Z,90.70
2018-12-20T22:49:35.209Z,90.70
2018-12-20T22:52:05.983Z,90.70
2018-12-20T22:54:37.191Z,90.70
2018-12-20T22:57:08.261Z,90.70
2018-12-20T22:59:39.067Z,90.70
2018-12-20T23:02:17.885Z,90.70
2018-12-20T23:04:43.133Z,90.60
2018-12-20T23:07:14.201Z,90.70
2018-12-20T23:09:45.313Z,95.20
2018-12-20T23:12:18.026Z,90.60
2018-12-20T23:14:49.560Z,90.60
2018-12-20T23:17:22.332Z,90.60
2018-12-20T23:19:53.483Z,90.60
2018-12-20T23:22:24.384Z,90.70
2018-12-20T23:24:55.607Z,90.70
2018-12-20T23:27:30.534Z,90.70
2018-12-20T23:30:01.476Z,90.70
2018-12-20T23:32:33.644Z,90.70
2018-12-20T23:35:05.875Z,90.70
2018-12-20T23:37:36.703Z,90.70
2018-12-20T23:40:07.582Z,90.70
2018-12-20T23:42:39.226Z,90.70
2018-12-20T23:45:12.273Z,98.30
2018-12-20T23:52:45.245Z,99.90
2018-12-20T23:55:16.266Z,99.90
